sensor_id;sensor_type;location;lat;lon;timestamp;P1;durP1;ratioP1;P2;durP2;ratioP2
11677;SDS011;5895;41.950;24.372;2024-03-22T00:02:06;4.05;;;3.10;;
11677;SDS011;5895;41.950;24.372;2024-03-22T00:04:34;3.85;;;3.28;;
11677;SDS011;5895;41.950;24.372;2024-03-22T00:07:01;6.68;;;3.10;;
11677;SDS011;5895;41.950;24.372;2024-03-22T00:09:29;6.72;;;3.22;;
11677;SDS011;5895;41.950;24.372;2024-03-22T00:11:55;7.75;;;3.22;;
11677;SDS011;5895;41.950;24.372;2024-03-22T00:14:22;3.65;;;3.20;;
11677;SDS011;5895;41.950;24.372;2024-03-22T00:16:48;5.57;;;3.35;;
11677;SDS011;5895;41.950;24.372;2024-03-22T00:19:15;4.43;;;3.30;;
11677;SDS011;5895;41.950;24.372;2024-03-22T00:21:41;4.10;;;3.22;;
11677;SDS011;5895;41.950;24.372;2024-03-22T00:24:09;4.90;;;3.40;;
11677;SDS011;5895;41.950;24.372;2024-03-22T00:26:35;5.90;;;3.10;;
11677;SDS011;5895;41.950;24.372;2024-03-22T00:29:02;5.07;;;3.30;;
11677;SDS011;5895;41.950;24.372;2024-03-22T00:31:28;3.42;;;3.03;;
11677;SDS011;5895;41.950;24.372;2024-03-22T00:33:55;3.50;;;3.20;;
11677;SDS011;5895;41.950;24.372;2024-03-22T00:36:21;3.70;;;2.92;;
11677;SDS011;5895;41.950;24.372;2024-03-22T00:38:48;3.88;;;3.22;;
11677;SDS011;5895;41.950;24.372;2024-03-22T00:41:15;4.13;;;3.50;;
11677;SDS011;5895;41.950;24.372;2024-03-22T00:43:42;4.90;;;3.53;;
11677;SDS011;5895;41.950;24.372;2024-03-22T00:46:08;6.15;;;3.50;;
11677;SDS011;5895;41.950;24.372;2024-03-22T00:48:35;4.25;;;3.58;;
11677;SDS011;5895;41.950;24.372;2024-03-22T00:51:01;5.82;;;3.55;;
11677;SDS011;5895;41.950;24.372;2024-03-22T00:53:29;5.25;;;3.40;;
11677;SDS011;5895;41.950;24.372;2024-03-22T00:55:55;3.53;;;3.22;;
11677;SDS011;5895;41.950;24.372;2024-03-22T00:58:26;4.07;;;3.50;;
11677;SDS011;5895;41.950;24.372;2024-03-22T01:00:52;4.25;;;2.90;;
11677;SDS011;5895;41.950;24.372;2024-03-22T01:03:19;3.78;;;3.25;;
11677;SDS011;5895;41.950;24.372;2024-03-22T01:05:45;4.50;;;3.45;;
11677;SDS011;5895;41.950;24.372;2024-03-22T01:08:12;4.95;;;3.90;;
11677;SDS011;5895;41.950;24.372;2024-03-22T01:10:38;3.47;;;3.13;;
11677;SDS011;5895;41.950;24.372;2024-03-22T01:13:05;4.03;;;3.63;;
11677;SDS011;5895;41.950;24.372;2024-03-22T01:15:33;6.05;;;3.70;;
11677;SDS011;5895;41.950;24.372;2024-03-22T01:18:00;7.22;;;4.07;;
11677;SDS011;5895;41.950;24.372;2024-03-22T01:20:26;5.65;;;4.00;;
11677;SDS011;5895;41.950;24.372;2024-03-22T01:22:53;11.52;;;10.48;;
11677;SDS011;5895;41.950;24.372;2024-03-22T01:25:19;6.15;;;5.55;;
11677;SDS011;5895;41.950;24.372;2024-03-22T01:27:46;4.60;;;4.15;;
11677;SDS011;5895;41.950;24.372;2024-03-22T01:30:12;5.13;;;4.40;;
11677;SDS011;5895;41.950;24.372;2024-03-22T01:32:41;4.68;;;3.90;;
11677;SDS011;5895;41.950;24.372;2024-03-22T01:35:07;5.28;;;4.28;;
11677;SDS011;5895;41.950;24.372;2024-03-22T01:37:35;4.30;;;3.90;;
11677;SDS011;5895;41.950;24.372;2024-03-22T01:40:01;6.40;;;4.60;;
11677;SDS011;5895;41.950;24.372;2024-03-22T01:42:28;4.72;;;4.22;;
11677;SDS011;5895;41.950;24.372;2024-03-22T01:44:54;4.50;;;4.00;;
11677;SDS011;5895;41.950;24.372;2024-03-22T01:47:21;4.95;;;4.45;;
11677;SDS011;5895;41.950;24.372;2024-03-22T01:49:48;5.25;;;4.55;;
11677;SDS011;5895;41.950;24.372;2024-03-22T01:52:17;6.50;;;4.53;;
11677;SDS011;5895;41.950;24.372;2024-03-22T01:54:43;4.95;;;4.45;;
11677;SDS011;5895;41.950;24.372;2024-03-22T01:57:10;5.32;;;4.63;;
11677;SDS011;5895;41.950;24.372;2024-03-22T01:59:36;5.22;;;4.72;;
11677;SDS011;5895;41.950;24.372;2024-03-22T02:02:04;5.97;;;4.70;;
11677;SDS011;5895;41.950;24.372;2024-03-22T02:04:30;6.38;;;4.88;;
11677;SDS011;5895;41.950;24.372;2024-03-22T02:06:59;7.10;;;5.18;;
11677;SDS011;5895;41.950;24.372;2024-03-22T02:09:25;6.30;;;5.00;;
11677;SDS011;5895;41.950;24.372;2024-03-22T02:11:52;6.03;;;5.10;;
11677;SDS011;5895;41.950;24.372;2024-03-22T02:14:18;5.13;;;4.72;;
11677;SDS011;5895;41.950;24.372;2024-03-22T02:16:45;6.28;;;4.95;;
11677;SDS011;5895;41.950;24.372;2024-03-22T02:19:11;5.38;;;4.88;;
11677;SDS011;5895;41.950;24.372;2024-03-22T02:21:38;5.68;;;4.95;;
11677;SDS011;5895;41.950;24.372;2024-03-22T02:24:06;6.45;;;5.05;;
11677;SDS011;5895;41.950;24.372;2024-03-22T02:26:33;7.68;;;5.03;;
11677;SDS011;5895;41.950;24.372;2024-03-22T02:28:59;7.82;;;5.40;;
11677;SDS011;5895;41.950;24.372;2024-03-22T02:31:26;7.30;;;5.60;;
11677;SDS011;5895;41.950;24.372;2024-03-22T02:33:52;6.03;;;5.43;;
11677;SDS011;5895;41.950;24.372;2024-03-22T02:36:19;6.50;;;5.80;;
11677;SDS011;5895;41.950;24.372;2024-03-22T02:38:45;8.77;;;6.20;;
11677;SDS011;5895;41.950;24.372;2024-03-22T02:41:13;6.95;;;6.25;;
11677;SDS011;5895;41.950;24.372;2024-03-22T02:43:39;11.05;;;7.30;;
11677;SDS011;5895;41.950;24.372;2024-03-22T02:46:06;8.02;;;7.22;;
11677;SDS011;5895;41.950;24.372;2024-03-22T02:48:32;8.13;;;6.93;;
11677;SDS011;5895;41.950;24.372;2024-03-22T02:50:59;8.50;;;7.68;;
11677;SDS011;5895;41.950;24.372;2024-03-22T02:53:25;8.15;;;7.35;;
11677;SDS011;5895;41.950;24.372;2024-03-22T02:55:52;8.80;;;7.68;;
11677;SDS011;5895;41.950;24.372;2024-03-22T02:58:19;10.25;;;8.05;;
11677;SDS011;5895;41.950;24.372;2024-03-22T03:00:47;8.90;;;7.88;;
11677;SDS011;5895;41.950;24.372;2024-03-22T03:03:13;8.07;;;7.28;;
11677;SDS011;5895;41.950;24.372;2024-03-22T03:05:41;7.60;;;6.90;;
11677;SDS011;5895;41.950;24.372;2024-03-22T03:08:07;9.15;;;7.15;;
11677;SDS011;5895;41.950;24.372;2024-03-22T03:10:35;8.25;;;7.28;;
11677;SDS011;5895;41.950;24.372;2024-03-22T03:13:01;8.63;;;7.47;;
11677;SDS011;5895;41.950;24.372;2024-03-22T03:15:29;8.10;;;7.30;;
11677;SDS011;5895;41.950;24.372;2024-03-22T03:17:55;10.00;;;8.50;;
11677;SDS011;5895;41.950;24.372;2024-03-22T03:20:22;8.60;;;7.70;;
11677;SDS011;5895;41.950;24.372;2024-03-22T03:22:48;8.77;;;7.68;;
11677;SDS011;5895;41.950;24.372;2024-03-22T03:25:15;10.25;;;7.93;;
11677;SDS011;5895;41.950;24.372;2024-03-22T03:27:41;10.18;;;7.45;;
11677;SDS011;5895;41.950;24.372;2024-03-22T03:30:08;8.10;;;7.30;;
11677;SDS011;5895;41.950;24.372;2024-03-22T03:32:35;9.77;;;7.85;;
11677;SDS011;5895;41.950;24.372;2024-03-22T03:35:03;8.52;;;7.57;;
11677;SDS011;5895;41.950;24.372;2024-03-22T03:37:30;8.90;;;7.75;;
11677;SDS011;5895;41.950;24.372;2024-03-22T03:39:57;8.35;;;7.45;;
11677;SDS011;5895;41.950;24.372;2024-03-22T03:42:23;7.60;;;6.85;;
11677;SDS011;5895;41.950;24.372;2024-03-22T03:44:50;10.15;;;7.35;;
11677;SDS011;5895;41.950;24.372;2024-03-22T03:47:16;9.82;;;7.35;;
11677;SDS011;5895;41.950;24.372;2024-03-22T03:49:46;8.05;;;7.03;;
11677;SDS011;5895;41.950;24.372;2024-03-22T03:52:12;8.57;;;7.20;;
11677;SDS011;5895;41.950;24.372;2024-03-22T03:54:39;7.63;;;6.28;;
11677;SDS011;5895;41.950;24.372;2024-03-22T03:57:05;9.10;;;6.93;;
11677;SDS011;5895;41.950;24.372;2024-03-22T03:59:32;11.25;;;7.47;;
11677;SDS011;5895;41.950;24.372;2024-03-22T04:01:58;8.45;;;7.07;;
11677;SDS011;5895;41.950;24.372;2024-03-22T04:04:25;7.68;;;6.97;;
11677;SDS011;5895;41.950;24.372;2024-03-22T04:06:53;9.13;;;6.88;;
11677;SDS011;5895;41.950;24.372;2024-03-22T04:09:20;8.77;;;7.78;;
11677;SDS011;5895;41.950;24.372;2024-03-22T04:11:46;8.82;;;7.13;;
11677;SDS011;5895;41.950;24.372;2024-03-22T04:14:13;7.53;;;6.65;;
11677;SDS011;5895;41.950;24.372;2024-03-22T04:16:38;8.23;;;6.97;;
11677;SDS011;5895;41.950;24.372;2024-03-22T04:19:05;10.68;;;7.68;;
11677;SDS011;5895;41.950;24.372;2024-03-22T04:21:32;9.98;;;8.30;;
11677;SDS011;5895;41.950;24.372;2024-03-22T04:24:01;10.13;;;6.75;;
11677;SDS011;5895;41.950;24.372;2024-03-22T04:26:27;9.32;;;7.32;;
11677;SDS011;5895;41.950;24.372;2024-03-22T04:28:54;7.85;;;7.05;;
11677;SDS011;5895;41.950;24.372;2024-03-22T04:31:20;14.18;;;10.18;;
11677;SDS011;5895;41.950;24.372;2024-03-22T04:33:47;15.90;;;11.73;;
11677;SDS011;5895;41.950;24.372;2024-03-22T04:36:13;14.35;;;12.48;;
11677;SDS011;5895;41.950;24.372;2024-03-22T04:38:40;27.58;;;24.58;;
11677;SDS011;5895;41.950;24.372;2024-03-22T04:41:08;19.80;;;17.70;;
11677;SDS011;5895;41.950;24.372;2024-03-22T04:43:35;26.02;;;21.35;;
11677;SDS011;5895;41.950;24.372;2024-03-22T04:46:01;67.35;;;54.50;;
11677;SDS011;5895;41.950;24.372;2024-03-22T04:48:28;37.65;;;29.55;;
11677;SDS011;5895;41.950;24.372;2024-03-22T04:50:54;37.33;;;28.27;;
11677;SDS011;5895;41.950;24.372;2024-03-22T04:53:21;31.38;;;23.92;;
11677;SDS011;5895;41.950;24.372;2024-03-22T04:55:47;25.33;;;17.38;;
11677;SDS011;5895;41.950;24.372;2024-03-22T04:58:17;22.63;;;15.45;;
11677;SDS011;5895;41.950;24.372;2024-03-22T05:00:44;13.75;;;10.95;;
11677;SDS011;5895;41.950;24.372;2024-03-22T05:03:11;12.13;;;8.63;;
11677;SDS011;5895;41.950;24.372;2024-03-22T05:05:38;10.77;;;7.82;;
11677;SDS011;5895;41.950;24.372;2024-03-22T05:08:05;8.48;;;7.22;;
11677;SDS011;5895;41.950;24.372;2024-03-22T05:10:32;12.38;;;10.95;;
11677;SDS011;5895;41.950;24.372;2024-03-22T05:12:59;13.30;;;11.13;;
11677;SDS011;5895;41.950;24.372;2024-03-22T05:15:27;14.07;;;11.05;;
11677;SDS011;5895;41.950;24.372;2024-03-22T05:17:56;12.30;;;11.10;;
11677;SDS011;5895;41.950;24.372;2024-03-22T05:20:23;12.27;;;10.70;;
11677;SDS011;5895;41.950;24.372;2024-03-22T05:22:50;12.35;;;10.40;;
11677;SDS011;5895;41.950;24.372;2024-03-22T05:25:16;13.00;;;9.68;;
11677;SDS011;5895;41.950;24.372;2024-03-22T05:27:43;12.18;;;8.93;;
11677;SDS011;5895;41.950;24.372;2024-03-22T05:30:10;13.48;;;12.07;;
11677;SDS011;5895;41.950;24.372;2024-03-22T05:32:39;14.90;;;10.95;;
11677;SDS011;5895;41.950;24.372;2024-03-22T05:35:06;13.95;;;10.00;;
11677;SDS011;5895;41.950;24.372;2024-03-22T05:37:33;16.35;;;12.13;;
11677;SDS011;5895;41.950;24.372;2024-03-22T05:40:00;17.60;;;12.43;;
11677;SDS011;5895;41.950;24.372;2024-03-22T05:42:29;11.55;;;9.88;;
11677;SDS011;5895;41.950;24.372;2024-03-22T05:44:55;11.15;;;8.85;;
11677;SDS011;5895;41.950;24.372;2024-03-22T05:47:22;11.10;;;9.10;;
11677;SDS011;5895;41.950;24.372;2024-03-22T05:49:50;10.35;;;8.27;;
11677;SDS011;5895;41.950;24.372;2024-03-22T05:52:17;8.98;;;8.02;;
11677;SDS011;5895;41.950;24.372;2024-03-22T05:54:44;8.50;;;7.70;;
11677;SDS011;5895;41.950;24.372;2024-03-22T05:57:10;9.30;;;8.07;;
11677;SDS011;5895;41.950;24.372;2024-03-22T05:59:37;8.90;;;7.97;;
11677;SDS011;5895;41.950;24.372;2024-03-22T06:13:41;8.30;;;7.10;;
11677;SDS011;5895;41.950;24.372;2024-03-22T06:16:08;7.25;;;6.60;;
11677;SDS011;5895;41.950;24.372;2024-03-22T06:18:33;7.80;;;7.00;;
11677;SDS011;5895;41.950;24.372;2024-03-22T06:21:00;7.32;;;6.53;;
11677;SDS011;5895;41.950;24.372;2024-03-22T06:23:27;9.75;;;8.02;;
11677;SDS011;5895;41.950;24.372;2024-03-22T06:25:54;7.60;;;6.25;;
11677;SDS011;5895;41.950;24.372;2024-03-22T06:28:20;9.05;;;7.55;;
11677;SDS011;5895;41.950;24.372;2024-03-22T06:30:49;7.65;;;6.95;;
11677;SDS011;5895;41.950;24.372;2024-03-22T06:33:15;34.80;;;23.00;;
11677;SDS011;5895;41.950;24.372;2024-03-22T06:35:42;8.93;;;8.02;;
11677;SDS011;5895;41.950;24.372;2024-03-22T06:38:08;11.15;;;9.82;;
11677;SDS011;5895;41.950;24.372;2024-03-22T06:40:35;8.15;;;7.35;;
11677;SDS011;5895;41.950;24.372;2024-03-22T06:43:01;8.95;;;7.88;;
11677;SDS011;5895;41.950;24.372;2024-03-22T06:45:28;7.82;;;6.85;;
11677;SDS011;5895;41.950;24.372;2024-03-22T06:47:56;9.25;;;6.47;;
11677;SDS011;5895;41.950;24.372;2024-03-22T06:50:23;10.18;;;7.40;;
11677;SDS011;5895;41.950;24.372;2024-03-22T06:52:49;8.43;;;6.38;;
11677;SDS011;5895;41.950;24.372;2024-03-22T06:55:16;8.88;;;6.68;;
11677;SDS011;5895;41.950;24.372;2024-03-22T06:57:43;7.85;;;6.15;;
11677;SDS011;5895;41.950;24.372;2024-03-22T07:00:10;7.75;;;6.95;;
11677;SDS011;5895;41.950;24.372;2024-03-22T07:02:38;9.23;;;7.82;;
11677;SDS011;5895;41.950;24.372;2024-03-22T07:05:07;8.05;;;7.20;;
11677;SDS011;5895;41.950;24.372;2024-03-22T07:07:34;14.23;;;12.73;;
11677;SDS011;5895;41.950;24.372;2024-03-22T07:10:01;8.40;;;7.50;;
11677;SDS011;5895;41.950;24.372;2024-03-22T07:12:27;9.70;;;7.70;;
11677;SDS011;5895;41.950;24.372;2024-03-22T07:14:55;8.43;;;6.90;;
11677;SDS011;5895;41.950;24.372;2024-03-22T07:17:21;9.40;;;6.55;;
11677;SDS011;5895;41.950;24.372;2024-03-22T07:19:49;7.45;;;6.10;;
11677;SDS011;5895;41.950;24.372;2024-03-22T07:22:17;7.93;;;7.13;;
11677;SDS011;5895;41.950;24.372;2024-03-22T07:24:45;8.75;;;7.15;;
11677;SDS011;5895;41.950;24.372;2024-03-22T07:27:12;8.40;;;6.50;;
11677;SDS011;5895;41.950;24.372;2024-03-22T07:29:40;6.90;;;6.10;;
11677;SDS011;5895;41.950;24.372;2024-03-22T07:32:06;6.57;;;5.97;;
11677;SDS011;5895;41.950;24.372;2024-03-22T07:34:33;6.85;;;6.15;;
11677;SDS011;5895;41.950;24.372;2024-03-22T07:36:59;5.72;;;4.88;;
11677;SDS011;5895;41.950;24.372;2024-03-22T07:39:28;7.13;;;5.05;;
11677;SDS011;5895;41.950;24.372;2024-03-22T07:41:54;4.40;;;4.00;;
11677;SDS011;5895;41.950;24.372;2024-03-22T07:44:22;4.57;;;3.92;;
11677;SDS011;5895;41.950;24.372;2024-03-22T07:46:49;5.13;;;3.72;;
11677;SDS011;5895;41.950;24.372;2024-03-22T07:49:17;3.72;;;3.40;;
11677;SDS011;5895;41.950;24.372;2024-03-22T07:51:43;3.50;;;2.95;;
11677;SDS011;5895;41.950;24.372;2024-03-22T07:54:10;3.05;;;2.85;;
11677;SDS011;5895;41.950;24.372;2024-03-22T07:56:38;8.10;;;5.93;;
11677;SDS011;5895;41.950;24.372;2024-03-22T07:59:05;5.03;;;4.25;;
11677;SDS011;5895;41.950;24.372;2024-03-22T08:01:31;3.10;;;2.80;;
11677;SDS011;5895;41.950;24.372;2024-03-22T08:03:58;2.85;;;2.60;;
11677;SDS011;5895;41.950;24.372;2024-03-22T08:06:24;4.57;;;3.38;;
11677;SDS011;5895;41.950;24.372;2024-03-22T08:08:51;5.35;;;3.00;;
11677;SDS011;5895;41.950;24.372;2024-03-22T08:11:17;2.88;;;2.67;;
11677;SDS011;5895;41.950;24.372;2024-03-22T08:13:45;5.15;;;4.03;;
11677;SDS011;5895;41.950;24.372;2024-03-22T08:16:12;5.57;;;4.68;;
11677;SDS011;5895;41.950;24.372;2024-03-22T08:18:39;6.38;;;5.20;;
11677;SDS011;5895;41.950;24.372;2024-03-22T08:21:05;3.95;;;3.33;;
11677;SDS011;5895;41.950;24.372;2024-03-22T08:23:32;7.72;;;6.00;;
11677;SDS011;5895;41.950;24.372;2024-03-22T08:25:58;5.72;;;4.90;;
11677;SDS011;5895;41.950;24.372;2024-03-22T08:28:25;5.80;;;5.18;;
11677;SDS011;5895;41.950;24.372;2024-03-22T08:30:53;5.53;;;4.88;;
11677;SDS011;5895;41.950;24.372;2024-03-22T08:33:20;4.55;;;4.00;;
11677;SDS011;5895;41.950;24.372;2024-03-22T08:35:46;4.25;;;3.63;;
11677;SDS011;5895;41.950;24.372;2024-03-22T08:38:13;7.30;;;3.50;;
11677;SDS011;5895;41.950;24.372;2024-03-22T08:40:40;3.78;;;3.40;;
11677;SDS011;5895;41.950;24.372;2024-03-22T08:43:07;3.63;;;2.92;;
11677;SDS011;5895;41.950;24.372;2024-03-22T08:45:33;4.13;;;2.92;;
11677;SDS011;5895;41.950;24.372;2024-03-22T08:48:01;4.57;;;3.15;;
11677;SDS011;5895;41.950;24.372;2024-03-22T08:50:27;6.03;;;4.43;;
11677;SDS011;5895;41.950;24.372;2024-03-22T08:52:55;4.70;;;3.67;;
11677;SDS011;5895;41.950;24.372;2024-03-22T08:55:20;5.28;;;3.45;;
11677;SDS011;5895;41.950;24.372;2024-03-22T08:57:48;5.10;;;3.80;;
11677;SDS011;5895;41.950;24.372;2024-03-22T09:00:14;2.95;;;2.65;;
11677;SDS011;5895;41.950;24.372;2024-03-22T09:02:41;3.47;;;3.17;;
11677;SDS011;5895;41.950;24.372;2024-03-22T09:05:09;3.72;;;3.35;;
11677;SDS011;5895;41.950;24.372;2024-03-22T09:07:36;5.72;;;3.92;;
11677;SDS011;5895;41.950;24.372;2024-03-22T09:10:03;4.50;;;3.85;;
11677;SDS011;5895;41.950;24.372;2024-03-22T09:12:30;4.28;;;3.88;;
11677;SDS011;5895;41.950;24.372;2024-03-22T09:14:56;4.03;;;3.63;;
11677;SDS011;5895;41.950;24.372;2024-03-22T09:17:23;5.93;;;4.60;;
11677;SDS011;5895;41.950;24.372;2024-03-22T09:19:49;5.15;;;4.35;;
11677;SDS011;5895;41.950;24.372;2024-03-22T09:22:18;4.43;;;3.60;;
11677;SDS011;5895;41.950;24.372;2024-03-22T09:24:44;9.95;;;3.60;;
11677;SDS011;5895;41.950;24.372;2024-03-22T09:27:10;3.78;;;3.22;;
11677;SDS011;5895;41.950;24.372;2024-03-22T09:29:36;4.07;;;3.67;;
11677;SDS011;5895;41.950;24.372;2024-03-22T09:32:04;3.45;;;3.15;;
11677;SDS011;5895;41.950;24.372;2024-03-22T09:34:30;3.92;;;3.42;;
11677;SDS011;5895;41.950;24.372;2024-03-22T09:36:57;3.53;;;3.20;;
11677;SDS011;5895;41.950;24.372;2024-03-22T09:39:24;4.07;;;3.67;;
11677;SDS011;5895;41.950;24.372;2024-03-22T09:41:52;3.83;;;3.50;;
11677;SDS011;5895;41.950;24.372;2024-03-22T09:44:22;6.15;;;3.05;;
11677;SDS011;5895;41.950;24.372;2024-03-22T09:46:50;4.03;;;3.65;;
11677;SDS011;5895;41.950;24.372;2024-03-22T09:49:17;3.38;;;3.08;;
11677;SDS011;5895;41.950;24.372;2024-03-22T09:51:44;3.28;;;2.97;;
11677;SDS011;5895;41.950;24.372;2024-03-22T09:54:12;5.53;;;3.50;;
11677;SDS011;5895;41.950;24.372;2024-03-22T09:56:41;2.90;;;2.70;;
11677;SDS011;5895;41.950;24.372;2024-03-22T09:59:07;2.83;;;2.63;;
11677;SDS011;5895;41.950;24.372;2024-03-22T10:01:35;3.15;;;2.70;;
11677;SDS011;5895;41.950;24.372;2024-03-22T10:04:02;3.03;;;2.80;;
11677;SDS011;5895;41.950;24.372;2024-03-22T10:06:29;3.13;;;2.83;;
11677;SDS011;5895;41.950;24.372;2024-03-22T10:08:57;3.30;;;2.97;;
11677;SDS011;5895;41.950;24.372;2024-03-22T10:11:25;4.55;;;3.50;;
11677;SDS011;5895;41.950;24.372;2024-03-22T10:13:53;4.88;;;4.20;;
11677;SDS011;5895;41.950;24.372;2024-03-22T10:16:21;6.95;;;6.22;;
11677;SDS011;5895;41.950;24.372;2024-03-22T10:18:47;4.30;;;3.90;;
11677;SDS011;5895;41.950;24.372;2024-03-22T10:21:16;2.83;;;2.63;;
11677;SDS011;5895;41.950;24.372;2024-03-22T10:23:43;3.40;;;2.28;;
11677;SDS011;5895;41.950;24.372;2024-03-22T10:26:12;2.78;;;2.50;;
11677;SDS011;5895;41.950;24.372;2024-03-22T10:28:43;2.95;;;2.65;;
11677;SDS011;5895;41.950;24.372;2024-03-22T10:31:13;4.57;;;3.17;;
11677;SDS011;5895;41.950;24.372;2024-03-22T10:33:40;3.15;;;2.85;;
11677;SDS011;5895;41.950;24.372;2024-03-22T10:36:08;3.20;;;2.83;;
11677;SDS011;5895;41.950;24.372;2024-03-22T10:38:36;3.17;;;2.88;;
11677;SDS011;5895;41.950;24.372;2024-03-22T10:41:05;4.65;;;3.63;;
11677;SDS011;5895;41.950;24.372;2024-03-22T10:43:31;3.35;;;3.05;;
11677;SDS011;5895;41.950;24.372;2024-03-22T10:46:00;3.05;;;2.72;;
11677;SDS011;5895;41.950;24.372;2024-03-22T10:48:30;3.00;;;2.70;;
11677;SDS011;5895;41.950;24.372;2024-03-22T10:50:59;3.42;;;2.97;;
11677;SDS011;5895;41.950;24.372;2024-03-22T10:53:26;3.55;;;3.25;;
11677;SDS011;5895;41.950;24.372;2024-03-22T10:55:54;4.78;;;4.38;;
11677;SDS011;5895;41.950;24.372;2024-03-22T10:58:25;4.18;;;2.83;;
11677;SDS011;5895;41.950;24.372;2024-03-22T11:00:52;3.88;;;2.60;;
11677;SDS011;5895;41.950;24.372;2024-03-22T11:03:19;5.55;;;3.38;;
11677;SDS011;5895;41.950;24.372;2024-03-22T11:05:50;3.53;;;2.78;;
11677;SDS011;5895;41.950;24.372;2024-03-22T11:08:23;5.07;;;3.30;;
11677;SDS011;5895;41.950;24.372;2024-03-22T11:10:51;4.55;;;2.55;;
11677;SDS011;5895;41.950;24.372;2024-03-22T11:13:17;4.22;;;3.83;;
11677;SDS011;5895;41.950;24.372;2024-03-22T11:15:47;3.28;;;2.97;;
11677;SDS011;5895;41.950;24.372;2024-03-22T11:18:13;2.78;;;2.40;;
11677;SDS011;5895;41.950;24.372;2024-03-22T11:20:40;2.63;;;2.40;;
11677;SDS011;5895;41.950;24.372;2024-03-22T11:23:08;2.90;;;2.70;;
11677;SDS011;5895;41.950;24.372;2024-03-22T11:25:36;3.42;;;2.80;;
11677;SDS011;5895;41.950;24.372;2024-03-22T11:28:02;3.10;;;2.80;;
11677;SDS011;5895;41.950;24.372;2024-03-22T11:30:30;2.80;;;2.60;;
11677;SDS011;5895;41.950;24.372;2024-03-22T11:32:57;4.20;;;2.70;;
11677;SDS011;5895;41.950;24.372;2024-03-22T11:35:27;2.60;;;2.40;;
11677;SDS011;5895;41.950;24.372;2024-03-22T11:37:53;2.95;;;2.58;;
11677;SDS011;5895;41.950;24.372;2024-03-22T11:40:22;5.55;;;2.50;;
11677;SDS011;5895;41.950;24.372;2024-03-22T11:42:50;2.80;;;2.20;;
11677;SDS011;5895;41.950;24.372;2024-03-22T11:45:20;2.58;;;2.22;;
11677;SDS011;5895;41.950;24.372;2024-03-22T11:47:48;2.47;;;2.28;;
11677;SDS011;5895;41.950;24.372;2024-03-22T11:50:15;2.10;;;2.00;;
11677;SDS011;5895;41.950;24.372;2024-03-22T11:52:42;1.90;;;1.80;;
11677;SDS011;5895;41.950;24.372;2024-03-22T11:55:12;4.90;;;4.40;;
11677;SDS011;5895;41.950;24.372;2024-03-22T11:57:40;2.83;;;2.42;;
11677;SDS011;5895;41.950;24.372;2024-03-22T12:00:08;3.92;;;2.55;;
11677;SDS011;5895;41.950;24.372;2024-03-22T12:02:35;3.13;;;2.60;;
11677;SDS011;5895;41.950;24.372;2024-03-22T12:05:03;3.25;;;2.70;;
11677;SDS011;5895;41.950;24.372;2024-03-22T12:07:30;2.80;;;2.50;;
11677;SDS011;5895;41.950;24.372;2024-03-22T12:09:58;2.03;;;1.90;;
11677;SDS011;5895;41.950;24.372;2024-03-22T12:12:24;2.83;;;2.47;;
11677;SDS011;5895;41.950;24.372;2024-03-22T12:14:53;4.00;;;2.83;;
11677;SDS011;5895;41.950;24.372;2024-03-22T12:17:19;6.30;;;2.42;;
11677;SDS011;5895;41.950;24.372;2024-03-22T12:19:46;4.18;;;2.30;;
11677;SDS011;5895;41.950;24.372;2024-03-22T12:22:12;2.90;;;2.67;;
11677;SDS011;5895;41.950;24.372;2024-03-22T12:24:39;3.13;;;2.72;;
11677;SDS011;5895;41.950;24.372;2024-03-22T12:27:05;3.58;;;3.25;;
11677;SDS011;5895;41.950;24.372;2024-03-22T12:29:32;3.03;;;2.53;;
11677;SDS011;5895;41.950;24.372;2024-03-22T12:32:00;4.80;;;2.90;;
11677;SDS011;5895;41.950;24.372;2024-03-22T12:34:29;4.50;;;3.60;;
11677;SDS011;5895;41.950;24.372;2024-03-22T12:36:55;4.75;;;3.72;;
11677;SDS011;5895;41.950;24.372;2024-03-22T12:39:22;3.08;;;2.70;;
11677;SDS011;5895;41.950;24.372;2024-03-22T12:41:48;2.42;;;2.22;;
11677;SDS011;5895;41.950;24.372;2024-03-22T12:44:15;2.42;;;2.20;;
11677;SDS011;5895;41.950;24.372;2024-03-22T12:46:41;2.78;;;2.40;;
11677;SDS011;5895;41.950;24.372;2024-03-22T12:49:11;3.15;;;2.10;;
11677;SDS011;5895;41.950;24.372;2024-03-22T12:51:37;2.60;;;2.40;;
11677;SDS011;5895;41.950;24.372;2024-03-22T12:54:04;2.83;;;2.50;;
11677;SDS011;5895;41.950;24.372;2024-03-22T12:56:31;2.40;;;2.20;;
11677;SDS011;5895;41.950;24.372;2024-03-22T12:58:58;2.97;;;2.67;;
11677;SDS011;5895;41.950;24.372;2024-03-22T13:01:24;3.42;;;2.50;;
11677;SDS011;5895;41.950;24.372;2024-03-22T13:03:52;3.63;;;2.35;;
11677;SDS011;5895;41.950;24.372;2024-03-22T13:06:19;3.92;;;2.10;;
11677;SDS011;5895;41.950;24.372;2024-03-22T13:08:46;3.22;;;2.63;;
11677;SDS011;5895;41.950;24.372;2024-03-22T13:11:12;2.50;;;2.30;;
11677;SDS011;5895;41.950;24.372;2024-03-22T13:13:39;3.40;;;2.60;;
11677;SDS011;5895;41.950;24.372;2024-03-22T13:16:05;2.67;;;2.47;;
11677;SDS011;5895;41.950;24.372;2024-03-22T13:18:34;2.65;;;2.35;;
11677;SDS011;5895;41.950;24.372;2024-03-22T13:21:00;3.30;;;3.00;;
11677;SDS011;5895;41.950;24.372;2024-03-22T13:23:29;3.22;;;2.90;;
11677;SDS011;5895;41.950;24.372;2024-03-22T13:25:55;2.80;;;2.60;;
11677;SDS011;5895;41.950;24.372;2024-03-22T13:28:23;3.65;;;2.80;;
11677;SDS011;5895;41.950;24.372;2024-03-22T13:30:58;3.42;;;2.70;;
11677;SDS011;5895;41.950;24.372;2024-03-22T13:33:26;2.50;;;2.30;;
11677;SDS011;5895;41.950;24.372;2024-03-22T13:35:53;3.30;;;3.00;;
11677;SDS011;5895;41.950;24.372;2024-03-22T13:38:19;4.25;;;3.00;;
11677;SDS011;5895;41.950;24.372;2024-03-22T13:40:53;2.60;;;2.40;;
11677;SDS011;5895;41.950;24.372;2024-03-22T13:43:19;3.60;;;3.30;;
11677;SDS011;5895;41.950;24.372;2024-03-22T13:45:47;3.65;;;3.00;;
11677;SDS011;5895;41.950;24.372;2024-03-22T13:48:19;3.22;;;2.92;;
11677;SDS011;5895;41.950;24.372;2024-03-22T13:50:49;4.25;;;3.72;;
11677;SDS011;5895;41.950;24.372;2024-03-22T13:53:15;4.65;;;3.90;;
11677;SDS011;5895;41.950;24.372;2024-03-22T13:55:42;3.85;;;3.45;;
11677;SDS011;5895;41.950;24.372;2024-03-22T13:58:09;4.28;;;3.50;;
11677;SDS011;5895;41.950;24.372;2024-03-22T14:00:37;4.85;;;4.35;;
11677;SDS011;5895;41.950;24.372;2024-03-22T14:03:03;5.13;;;3.25;;
11677;SDS011;5895;41.950;24.372;2024-03-22T14:05:31;6.22;;;5.55;;
11677;SDS011;5895;41.950;24.372;2024-03-22T14:07:57;6.68;;;5.97;;
11677;SDS011;5895;41.950;24.372;2024-03-22T14:10:24;7.20;;;6.50;;
11677;SDS011;5895;41.950;24.372;2024-03-22T14:12:52;5.30;;;4.70;;
11677;SDS011;5895;41.950;24.372;2024-03-22T14:15:21;4.32;;;3.92;;
11677;SDS011;5895;41.950;24.372;2024-03-22T14:17:50;3.40;;;3.10;;
11677;SDS011;5895;41.950;24.372;2024-03-22T14:20:17;9.27;;;4.07;;
11677;SDS011;5895;41.950;24.372;2024-03-22T14:22:44;3.97;;;3.58;;
11677;SDS011;5895;41.950;24.372;2024-03-22T14:25:12;5.75;;;3.42;;
11677;SDS011;5895;41.950;24.372;2024-03-22T14:27:38;5.90;;;3.28;;
11677;SDS011;5895;41.950;24.372;2024-03-22T14:30:07;3.40;;;3.10;;
11677;SDS011;5895;41.950;24.372;2024-03-22T14:32:37;4.20;;;3.03;;
11677;SDS011;5895;41.950;24.372;2024-03-22T14:35:05;4.78;;;3.30;;
11677;SDS011;5895;41.950;24.372;2024-03-22T14:37:32;3.95;;;3.42;;
11677;SDS011;5895;41.950;24.372;2024-03-22T14:39:59;5.47;;;3.83;;
11677;SDS011;5895;41.950;24.372;2024-03-22T14:42:25;7.03;;;2.80;;
11677;SDS011;5895;41.950;24.372;2024-03-22T14:44:52;3.45;;;3.03;;
11677;SDS011;5895;41.950;24.372;2024-03-22T14:47:20;3.58;;;2.97;;
11677;SDS011;5895;41.950;24.372;2024-03-22T14:49:50;4.70;;;3.13;;
11677;SDS011;5895;41.950;24.372;2024-03-22T14:52:16;3.47;;;3.17;;
11677;SDS011;5895;41.950;24.372;2024-03-22T14:54:43;3.90;;;3.50;;
11677;SDS011;5895;41.950;24.372;2024-03-22T14:57:09;3.65;;;3.20;;